Home > Products > Valid Products > TAF

000
FTUS43 KBIS 042339
TAFISN
TAF
KISN 042339Z 0500/0524 22011KT P6SM FEW250
     FM050200 20007KT P6SM FEW250=



000
FTUS43 KBIS 042339
TAFJMS
TAF
KJMS 042339Z 0500/0524 VRB04KT P6SM FEW250
     FM051100 24009KT P6SM SKC
     FM051600 24013G19KT P6SM SKC=



000
FTUS43 KBIS 042339
TAFDIK
TAF
KDIK 042339Z 0500/0524 23012KT P6SM FEW150
     FM050200 18009KT P6SM FEW250=



000
FTUS43 KBIS 042339
TAFBIS
TAF
KBIS 042339Z 0500/0524 18008KT P6SM FEW250
     FM051000 19004KT P6SM SKC WS015/20035KT
     FM051500 20006KT P6SM SKC=



000
FTUS43 KBIS 042339
TAFMOT
TAF
KMOT 042339Z 0500/0524 22011KT P6SM FEW150
     FM050800 22010KT P6SM SKC WS015/20035KT
     FM051500 22010KT P6SM SKC=



000
FTUS43 KBIS 041935 AAA
TAFISN
TAF AMD
KISN 041935Z 0420/0518 24012KT P6SM SKC=



000
FTUS43 KBIS 041935 AAA
TAFISN
TAF AMD
KISN 041935Z 0420/0518 24012KT P6SM SKC=



000
FTUS43 KBIS 041738
TAFISN
TAF
KISN 041738Z 0418/0518 21008KT P6SM SKC=



000
FTUS43 KBIS 041738
TAFJMS
TAF
KJMS 041738Z 0418/0518 33007KT P6SM FEW250
     FM050100 22005KT P6SM FEW250=



000
FTUS43 KBIS 041738
TAFBIS
TAF
KBIS 041738Z 0418/0518 14005KT P6SM FEW250
     FM051400 19005KT P6SM SKC WS020/23030KT=



000
FTUS43 KBIS 041738
TAFDIK
TAF
KDIK 041738Z 0418/0518 20007KT P6SM SKC=



000
FTUS43 KBIS 041738
TAFMOT
TAF
KMOT 041738Z 0418/0518 20007KT P6SM FEW250=



000
FTUS43 KBIS 041738
TAFJMS
TAF
KJMS 041738Z 0418/0518 33007KT P6SM FEW250
     FM050100 22005KT P6SM FEW250=



000
FTUS43 KBIS 041738
TAFMOT
TAF
KMOT 041738Z 0418/0518 20007KT P6SM FEW250=



000
FTUS43 KBIS 041738
TAFDIK
TAF
KDIK 041738Z 0418/0518 20007KT P6SM SKC=



000
FTUS43 KBIS 041738
TAFBIS
TAF
KBIS 041738Z 0418/0518 14005KT P6SM FEW250
     FM051400 19005KT P6SM SKC WS020/23030KT=



000
FTUS43 KBIS 041738
TAFISN
TAF
KISN 041738Z 0418/0518 21008KT P6SM SKC=



000
FTUS43 KBIS 041121
TAFDIK
TAF
KDIK 041121Z 0412/0512 20006KT P6SM SKC
     FM042200 19010KT P6SM SKC=



000
FTUS43 KBIS 041121
TAFDIK
TAF
KDIK 041121Z 0412/0512 20006KT P6SM SKC
     FM042200 19010KT P6SM SKC=



000
FTUS43 KBIS 041121
TAFISN
TAF
KISN 041121Z 0412/0512 VRB04KT P6SM SKC
     FM041700 21008KT P6SM SKC=



000
FTUS43 KBIS 041121
TAFJMS
TAF
KJMS 041121Z 0412/0512 VRB05KT P6SM SKC
     FM050300 19006KT P6SM FEW250
     FM050700 22007KT P6SM SKC=



000
FTUS43 KBIS 041121
TAFMOT
TAF
KMOT 041121Z 0412/0512 VRB05KT P6SM FEW100
     FM042000 21009KT P6SM FEW250=



000
FTUS43 KBIS 041121
TAFBIS
TAF
KBIS 041121Z 0412/0512 VRB03KT P6SM SKC
     FM050000 19006KT P6SM SKC=



000
FTUS43 KBIS 041121
TAFISN
TAF
KISN 041121Z 0412/0512 VRB04KT P6SM SKC
     FM041700 21008KT P6SM SKC=



000
FTUS43 KBIS 041121
TAFBIS
TAF
KBIS 041121Z 0412/0512 VRB03KT P6SM SKC
     FM050000 19006KT P6SM SKC=



000
FTUS43 KBIS 041121
TAFJMS
TAF
KJMS 041121Z 0412/0512 VRB05KT P6SM SKC
     FM050300 19006KT P6SM FEW250
     FM050700 22007KT P6SM SKC=



000
FTUS43 KBIS 041121
TAFMOT
TAF
KMOT 041121Z 0412/0512 VRB05KT P6SM FEW100
     FM042000 21009KT P6SM FEW250=



000
FTUS43 KBIS 040530
TAFJMS
TAF
KJMS 040530Z 0406/0506 VRB05KT P6SM SKC=



000
FTUS43 KBIS 040530
TAFBIS
TAF
KBIS 040530Z 0406/0506 VRB03KT P6SM FEW250
     FM042300 20006KT P6SM FEW250=



000
FTUS43 KBIS 040530
TAFBIS
TAF
KBIS 040530Z 0406/0506 VRB03KT P6SM FEW250
     FM042300 20006KT P6SM FEW250=



000
FTUS43 KBIS 040530
TAFJMS
TAF
KJMS 040530Z 0406/0506 VRB05KT P6SM SKC=



000
FTUS43 KBIS 040530
TAFDIK
TAF
KDIK 040530Z 0406/0506 13004KT P6SM SKC
     FM041000 19005KT P6SM SKC
     FM042100 18009KT P6SM FEW250=



000
FTUS43 KBIS 040530
TAFMOT
TAF
KMOT 040530Z 0406/0506 14004KT P6SM FEW250
     FM041400 20006KT P6SM FEW250=



000
FTUS43 KBIS 040530
TAFISN
TAF
KISN 040530Z 0406/0506 VRB04KT P6SM SKC
     FM041800 21009KT P6SM SKC
     FM050300 18005KT P6SM SKC=



000
FTUS43 KBIS 040530
TAFISN
TAF
KISN 040530Z 0406/0506 VRB04KT P6SM SKC
     FM041800 21009KT P6SM SKC
     FM050300 18005KT P6SM SKC=



000
FTUS43 KBIS 040530
TAFMOT
TAF
KMOT 040530Z 0406/0506 14004KT P6SM FEW250
     FM041400 20006KT P6SM FEW250=



000
FTUS43 KBIS 040530
TAFDIK
TAF
KDIK 040530Z 0406/0506 13004KT P6SM SKC
     FM041000 19005KT P6SM SKC
     FM042100 18009KT P6SM FEW250=



000
FTUS43 KBIS 032343 AAA
TAFJMS
TAF AMD
KJMS 032343Z 0400/0424 36022G28KT P6SM SKC
     FM040200 36006KT P6SM SKC=



000
FTUS43 KBIS 032338 AAA
TAFDIK
TAF AMD
KDIK 032338Z 0400/0424 36014G20KT P6SM FEW200
     FM040200 04006KT P6SM FEW250
     FM041500 18010KT P6SM SKC=



000
FTUS43 KBIS 032337 AAA
TAFMOT
TAF AMD
KMOT 032337Z 0400/0424 34014G22KT P6SM SKC
     FM040200 35005KT P6SM SKC
     FM041700 21007KT P6SM FEW250=



000
FTUS43 KBIS 032337 AAA
TAFMOT
TAF AMD
KMOT 032337Z 0400/0424 34014G22KT P6SM SKC
     FM040200 35005KT P6SM SKC
     FM041700 21007KT P6SM FEW250=



000
FTUS43 KBIS 032336 AAA
TAFISN
TAF AMD
KISN 032336Z 0400/0424 01009G18KT P6SM FEW250
     FM040200 04005KT P6SM FEW250
     FM041600 19010KT P6SM SKC=



000
FTUS43 KBIS 032336 AAA
TAFISN
TAF AMD
KISN 032336Z 0400/0424 01009G18KT P6SM FEW250
     FM040200 04005KT P6SM FEW250
     FM041600 19010KT P6SM SKC=



000
FTUS43 KBIS 032335 AAA
TAFBIS
TAF AMD
KBIS 032335Z 0400/0424 01015G22KT P6SM SKC
     FM040200 02005KT P6SM SKC
     FM042000 18009KT P6SM SKC=



000
FTUS43 KBIS 032335 AAA
TAFBIS
TAF AMD
KBIS 032335Z 0400/0424 01015G22KT P6SM SKC
     FM040200 02005KT P6SM SKC
     FM042000 18009KT P6SM SKC=



000
FTUS43 KBIS 032320
TAFJMS
TAF
KJMS 032320Z 0400/0424 36022G28KT P6SM SKC
     FM040200 36009KT P6SM SKC
     FM040400 35004KT P6SM SKC
     FM042200 29004KT P6SM FEW250=



000
FTUS43 KBIS 032320
TAFBIS
TAF
KBIS 032320Z 0400/0424 01015G22KT P6SM SKC
     FM040200 02007KT P6SM SKC
     FM040500 VRB03KT P6SM SKC
     FM042000 18009KT P6SM SKC=



000
FTUS43 KBIS 032320
TAFJMS
TAF
KJMS 032320Z 0400/0424 36022G28KT P6SM SKC
     FM040200 36009KT P6SM SKC
     FM040400 35004KT P6SM SKC
     FM042200 29004KT P6SM FEW250=



000
FTUS43 KBIS 032320
TAFISN
TAF
KISN 032320Z 0400/0424 02009G18KT P6SM FEW250
     FM040200 04005KT P6SM FEW250
     FM040600 12004KT P6SM SKC
     FM041300 18005KT P6SM SKC
     FM041800 21010KT P6SM SKC=



000
FTUS43 KBIS 032320
TAFBIS
TAF
KBIS 032320Z 0400/0424 01015G22KT P6SM SKC
     FM040200 02007KT P6SM SKC
     FM040500 VRB03KT P6SM SKC
     FM042000 18009KT P6SM SKC=



000
FTUS43 KBIS 032320
TAFISN
TAF
KISN 032320Z 0400/0424 02009G18KT P6SM FEW250
     FM040200 04005KT P6SM FEW250
     FM040600 12004KT P6SM SKC
     FM041300 18005KT P6SM SKC
     FM041800 21010KT P6SM SKC=



000
FTUS43 KBIS 032320
TAFDIK
TAF
KDIK 032320Z 0400/0424 36014G20KT P6SM FEW200
     FM040200 04006KT P6SM FEW250
     FM040500 12004KT P6SM SKC
     FM040900 18005KT P6SM SKC
     FM041900 18012KT P6SM FEW250=



000
FTUS43 KBIS 032320
TAFMOT
TAF
KMOT 032320Z 0400/0424 34014G22KT P6SM SKC
     FM040200 35007KT P6SM SKC
     FM040400 VRB03KT P6SM SKC
     FM041700 21007KT P6SM FEW250=



000
FTUS43 KBIS 032320
TAFDIK
TAF
KDIK 032320Z 0400/0424 36014G20KT P6SM FEW200
     FM040200 04006KT P6SM FEW250
     FM040500 12004KT P6SM SKC
     FM040900 18005KT P6SM SKC
     FM041900 18012KT P6SM FEW250=



000
FTUS43 KBIS 032320
TAFMOT
TAF
KMOT 032320Z 0400/0424 34014G22KT P6SM SKC
     FM040200 35007KT P6SM SKC
     FM040400 VRB03KT P6SM SKC
     FM041700 21007KT P6SM FEW250=



000
FTUS43 KBIS 031724
TAFBIS
TAF
KBIS 031724Z 0318/0418 34015KT P6SM FEW250
     FM040000 VRB04KT P6SM SKC=



000
FTUS43 KBIS 031724
TAFMOT
TAF
KMOT 031724Z 0318/0418 35015KT P6SM FEW250
     FM040400 VRB04KT P6SM FEW250=



000
FTUS43 KBIS 031724
TAFDIK
TAF
KDIK 031724Z 0318/0418 35012KT P6SM FEW250
     FM040200 VRB05KT P6SM FEW250=



000
FTUS43 KBIS 031724
TAFISN
TAF
KISN 031724Z 0318/0418 35009KT P6SM SKC
     FM040200 VRB04KT P6SM FEW250=



000
FTUS43 KBIS 031724
TAFJMS
TAF
KJMS 031724Z 0318/0418 35017G29KT P6SM SKC
     FM040200 36008KT P6SM SKC=



000
FTUS43 KBIS 031724
TAFBIS
TAF
KBIS 031724Z 0318/0418 34015KT P6SM FEW250
     FM040000 VRB04KT P6SM SKC=



000
FTUS43 KBIS 031120
TAFMOT
TAF
KMOT 031120Z 0312/0412 22006KT P6SM FEW250
     FM031300 29010KT P6SM FEW250
     FM031500 33012KT P6SM FEW250
     FM040400 VRB04KT P6SM FEW250=



000
FTUS43 KBIS 031120
TAFJMS
TAF
KJMS 031120Z 0312/0412 VRB03KT P6SM FEW250
     FM031400 29011KT P6SM FEW250
     FM031700 33017G29KT P6SM SKC
     FM040200 36008KT P6SM SKC=



000
FTUS43 KBIS 031120
TAFBIS
TAF
KBIS 031120Z 0312/0412 VRB03KT P6SM FEW250
     FM031400 30006KT P6SM FEW250
     FM031700 34011KT P6SM FEW250
     FM040000 01008KT P6SM SKC
     FM040400 VRB04KT P6SM SKC=



000
FTUS43 KBIS 031120
TAFDIK
TAF
KDIK 031120Z 0312/0412 VRB03KT P6SM FEW250
     FM031300 28007KT P6SM FEW250
     FM031700 34010KT P6SM FEW250
     FM040200 04006KT P6SM FEW250=



000
FTUS43 KBIS 031120
TAFISN
TAF
KISN 031120Z 0312/0412 VRB03KT P6SM FEW250
     FM031500 34009KT P6SM SKC
     FM040200 03005KT P6SM FEW250=



000
FTUS43 KBIS 030528
TAFMOT
TAF
KMOT 030528Z 0306/0406 22006KT P6SM FEW250
     FM031300 29010KT P6SM FEW250
     FM031500 33012KT P6SM FEW250
     FM040400 VRB04KT P6SM FEW250=



000
FTUS43 KBIS 030528
TAFDIK
TAF
KDIK 030528Z 0306/0406 VRB03KT P6SM FEW250
     FM031300 28007KT P6SM FEW250
     FM031700 34010KT P6SM FEW250
     FM040200 04006KT P6SM FEW250=



000
FTUS43 KBIS 030528
TAFJMS
TAF
KJMS 030528Z 0306/0406 VRB03KT P6SM FEW250
     FM031400 29011KT P6SM FEW250
     FM031700 33017G29KT P6SM SKC
     FM040200 36008KT P6SM SKC=



000
FTUS43 KBIS 030528
TAFISN
TAF
KISN 030528Z 0306/0406 VRB03KT P6SM FEW250
     FM031500 34009KT P6SM SKC
     FM040200 03005KT P6SM FEW250=



000
FTUS43 KBIS 030528
TAFBIS
TAF
KBIS 030528Z 0306/0406 VRB03KT P6SM FEW250
     FM031400 30006KT P6SM FEW250
     FM031700 34011KT P6SM FEW250
     FM040000 01008KT P6SM SKC
     FM040400 VRB04KT P6SM SKC=



000
FTUS43 KBIS 030528
TAFISN
TAF
KISN 030528Z 0306/0406 VRB03KT P6SM FEW250
     FM031500 34009KT P6SM SKC
     FM040200 03005KT P6SM FEW250=



000
FTUS43 KBIS 030528
TAFMOT
TAF
KMOT 030528Z 0306/0406 22006KT P6SM FEW250
     FM031300 29010KT P6SM FEW250
     FM031500 33012KT P6SM FEW250
     FM040400 VRB04KT P6SM FEW250=



000
FTUS43 KBIS 030528
TAFBIS
TAF
KBIS 030528Z 0306/0406 VRB03KT P6SM FEW250
     FM031400 30006KT P6SM FEW250
     FM031700 34011KT P6SM FEW250
     FM040000 01008KT P6SM SKC
     FM040400 VRB04KT P6SM SKC=



000
FTUS43 KBIS 030528
TAFDIK
TAF
KDIK 030528Z 0306/0406 VRB03KT P6SM FEW250
     FM031300 28007KT P6SM FEW250
     FM031700 34010KT P6SM FEW250
     FM040200 04006KT P6SM FEW250=



000
FTUS43 KBIS 030528
TAFJMS
TAF
KJMS 030528Z 0306/0406 VRB03KT P6SM FEW250
     FM031400 29011KT P6SM FEW250
     FM031700 33017G29KT P6SM SKC
     FM040200 36008KT P6SM SKC=



000
FTUS43 KBIS 030142 AAA
TAFDIK
TAF AMD
KDIK 030142Z 0302/0324 05010KT P6SM SKC
     FM030500 19005KT P6SM FEW250
     FM031100 28007KT P6SM FEW250
     FM031700 34009KT P6SM FEW250=



000
FTUS43 KBIS 022324
TAFBIS
TAF
KBIS 022324Z 0300/0324 06005KT P6SM FEW060
     FM030200 09004KT P6SM FEW250
     FM031500 31006KT P6SM FEW250
     FM031800 34011G19KT P6SM FEW250=



000
FTUS43 KBIS 022324
TAFJMS
TAF
KJMS 022324Z 0300/0324 19013KT P6SM FEW250
     FM030200 20004KT P6SM FEW250
     FM030600 26004KT P6SM FEW250
     FM031500 34016G25KT P6SM SKC=



000
FTUS43 KBIS 022324
TAFJMS
TAF
KJMS 022324Z 0300/0324 19013KT P6SM FEW250
     FM030200 20004KT P6SM FEW250
     FM030600 26004KT P6SM FEW250
     FM031500 34016G25KT P6SM SKC=



000
FTUS43 KBIS 022324
TAFMOT
TAF
KMOT 022324Z 0300/0324 05005KT P6SM FEW250
     FM030300 15005KT P6SM FEW250
     FM030600 24007KT P6SM FEW250
     FM031300 29008KT P6SM FEW250
     FM031400 35011KT P6SM FEW250=



000
FTUS43 KBIS 022324
TAFDIK
TAF
KDIK 022324Z 0300/0324 02012G21KT P6SM FEW250
     FM030200 11004KT P6SM FEW250
     FM030600 19005KT P6SM FEW250
     FM031100 28007KT P6SM FEW250
     FM031700 34009KT P6SM FEW250=



000
FTUS43 KBIS 022324
TAFISN
TAF
KISN 022324Z 0300/0324 02009KT P6SM SKC
     FM030200 04005KT P6SM SKC
     FM031400 34007KT P6SM SKC=



000
FTUS43 KBIS 022324
TAFDIK
TAF
KDIK 022324Z 0300/0324 02012G21KT P6SM FEW250
     FM030200 11004KT P6SM FEW250
     FM030600 19005KT P6SM FEW250
     FM031100 28007KT P6SM FEW250
     FM031700 34009KT P6SM FEW250=



000
FTUS43 KBIS 022324
TAFISN
TAF
KISN 022324Z 0300/0324 02009KT P6SM SKC
     FM030200 04005KT P6SM SKC
     FM031400 34007KT P6SM SKC=



000
FTUS43 KBIS 022324
TAFBIS
TAF
KBIS 022324Z 0300/0324 06005KT P6SM FEW060
     FM030200 09004KT P6SM FEW250
     FM031500 31006KT P6SM FEW250
     FM031800 34011G19KT P6SM FEW250=



000
FTUS43 KBIS 022324
TAFMOT
TAF
KMOT 022324Z 0300/0324 05005KT P6SM FEW250
     FM030300 15005KT P6SM FEW250
     FM030600 24007KT P6SM FEW250
     FM031300 29008KT P6SM FEW250
     FM031400 35011KT P6SM FEW250=



000
FTUS43 KBIS 021720
TAFJMS
TAF
KJMS 021720Z 0218/0318 18011KT P6SM VCSH BKN080
     FM022300 19005KT P6SM SCT250
     FM030800 26005KT P6SM SCT250=



000
FTUS43 KBIS 021720
TAFISN
TAF
KISN 021720Z 0218/0318 35015KT P6SM SKC
     FM022300 02010KT P6SM SKC
     FM030300 VRB03KT P6SM FEW250=



000
FTUS43 KBIS 021720
TAFDIK
TAF
KDIK 021720Z 0218/0318 32015G22KT P6SM SCT100
     FM030000 02010KT P6SM FEW250
     FM030400 VRB04KT P6SM FEW250=



000
FTUS43 KBIS 021720
TAFMOT
TAF
KMOT 021720Z 0218/0318 36009KT P6SM SKC
     FM030300 11005KT P6SM FEW250
     FM030900 29005KT P6SM FEW250=



000
FTUS43 KBIS 021720
TAFBIS
TAF
KBIS 021720Z 0218/0318 35005KT P6SM SCT100
     FM022200 07005KT P6SM SCT070
     FM030600 VRB03KT P6SM FEW250=



000
FTUS43 KBIS 021136
TAFJMS
TAF
KJMS 021136Z 0212/0312 23006KT P6SM VCSH BKN090
     FM021400 18006KT P6SM -SHRA BKN080
     FM021700 16008KT P6SM SCT150
     FM022300 16005KT P6SM SCT250
     FM030800 26005KT P6SM SCT250=



000
FTUS43 KBIS 021136
TAFBIS
TAF
KBIS 021136Z 0212/0312 22006KT P6SM -SHRA BKN080
     FM021500 27005KT P6SM BKN080
     FM021700 35005KT P6SM VCTS SCT080CB
     FM022200 05005KT P6SM SCT070
     FM030000 07005KT P6SM FEW250
     FM030600 VRB03KT P6SM FEW250=



000
FTUS43 KBIS 021136
TAFDIK
TAF
KDIK 021136Z 0212/0312 27008KT P6SM BKN090
     FM021500 30014KT P6SM BKN080
     FM021700 32013G21KT P6SM SCT080
     FM022000 35013G22KT P6SM SCT090
     FM030000 02010KT P6SM FEW250
     FM030400 VRB04KT P6SM FEW250=



000
FTUS43 KBIS 021136
TAFISN
TAF
KISN 021136Z 0212/0312 28015KT P6SM SCT100
     FM021500 32016KT P6SM SCT090
     FM021900 36016KT P6SM SCT090
     FM022300 02008KT P6SM SKC
     FM030300 VRB04KT P6SM FEW250=



000
FTUS43 KBIS 021136
TAFMOT
TAF
KMOT 021136Z 0212/0312 24012KT P6SM VCSH BKN090
     FM021400 31012KT P6SM SCT150
     FM021700 36009KT P6SM FEW250
     FM030300 02005KT P6SM FEW250
     FM030500 25005KT P6SM FEW250=



000
FTUS43 KBIS 021040 AAA
TAFMOT
TAF AMD
KMOT 021040Z 0211/0306 23007KT P6SM -SHRA VCTS BKN080CB
     FM021200 27006KT P6SM BKN080
     FM021500 35010KT P6SM FEW050
     FM030200 25004KT P6SM SKC=



000
FTUS43 KBIS 020939 AAA
TAFISN
TAF AMD
KISN 020939Z 0210/0306 28013KT P6SM BKN090
     FM021400 31007KT P6SM SCT070
     FM021800 01012KT P6SM FEW180
     FM030100 02007KT P6SM SKC=



000
FTUS43 KBIS 020527
TAFDIK
TAF
KDIK 020527Z 0206/0306 25006KT P6SM SCT250
     FM020800 27009KT P6SM BKN070
     FM021600 31011G20KT P6SM VCTS BKN060CB
     FM022100 01012KT P6SM SCT060
     FM030300 07004KT P6SM SKC=



000
FTUS43 KBIS 020527
TAFMOT
TAF
KMOT 020527Z 0206/0306 22007KT P6SM BKN090
     FM020800 24007KT P6SM -SHRA OVC080
     FM021200 25006KT P6SM BKN080
     FM021500 35010KT P6SM FEW050
     FM030200 25004KT P6SM SKC=



000
FTUS43 KBIS 020527
TAFISN
TAF
KISN 020527Z 0206/0306 25005KT P6SM BKN070
     FM021400 31007KT P6SM SCT070
     FM021800 01012KT P6SM FEW180
     FM030100 02007KT P6SM SKC=



000
FTUS43 KBIS 020527
TAFJMS
TAF
KJMS 020527Z 0206/0306 23004KT P6SM SCT150
     FM021200 22004KT P6SM SCT070 BKN100
     FM021500 30005KT P6SM VCSH OVC050
     FM022100 15007KT P6SM SCT070
     FM030100 22004KT P6SM FEW050=



000
FTUS43 KBIS 020527
TAFBIS
TAF
KBIS 020527Z 0206/0306 00000KT P6SM SCT090
     FM021000 VRB03KT P6SM VCSH BKN090
     FM021200 26004KT P6SM -SHRA OVC050
     FM021600 30006KT P6SM BKN070
     FM021800 03006KT P6SM VCTS BKN050CB
     FM030000 06007KT P6SM SCT050=



    US Dept of Commerce
    National Oceanic and Atmospheric Administration
    National Weather Service
    1325 East West Highway
    Silver Spring, MD 20910
    Page Author: NWS Internet Services Team
Disclaimer
Information Quality
Credits
Glossary
Privacy Policy
Freedom of Information Act (FOIA)
About Us
Career Opportunities